createdAt,value
2018-05-18T00:01:48.502Z,12.69
2018-05-18T00:04:18.029Z,12.65
2018-05-18T00:06:47.549Z,12.60
2018-05-18T00:09:17.086Z,12.65
2018-05-18T00:11:46.896Z,12.65
2018-05-18T00:14:17.183Z,12.69
2018-05-18T00:16:46.716Z,12.73
2018-05-18T00:19:16.242Z,12.68
2018-05-18T00:21:45.752Z,12.81
2018-05-18T00:24:15.681Z,12.72
2018-05-18T00:26:45.612Z,12.71
2018-05-18T00:29:15.148Z,12.74
2018-05-18T00:31:44.669Z,12.78
2018-05-18T00:34:14.216Z,12.59
2018-05-18T00:36:44.124Z,12.65
2018-05-18T00:39:14.036Z,12.51
2018-05-18T00:41:43.964Z,12.60
2018-05-18T00:44:13.934Z,12.62
2018-05-18T00:46:43.461Z,12.72
2018-05-18T00:49:12.993Z,13.06
2018-05-18T00:51:42.550Z,12.96
2018-05-18T00:54:12.080Z,12.75
2018-05-18T00:56:41.674Z,12.96
2018-05-18T00:59:11.324Z,12.51
2018-05-18T01:01:40.858Z,12.33
2018-05-18T01:04:10.407Z,12.26
2018-05-18T01:06:40.131Z,12.20
2018-05-18T01:09:10.073Z,12.21
2018-05-18T01:11:39.640Z,12.23
2018-05-18T01:14:09.164Z,12.26
2018-05-18T01:16:39.086Z,12.34
2018-05-18T01:19:08.998Z,12.61
2018-05-18T01:21:38.918Z,12.63
2018-05-18T01:24:08.469Z,12.56
2018-05-18T01:26:38.008Z,12.48
2018-05-18T01:29:07.538Z,12.52
2018-05-18T01:31:37.082Z,12.63
2018-05-18T01:34:06.634Z,12.61
2018-05-18T01:36:36.600Z,12.73
2018-05-18T01:39:06.194Z,12.54
2018-05-18T01:41:35.747Z,12.57
2018-05-18T01:44:05.125Z,12.67
2018-05-18T01:46:34.646Z,12.93
2018-05-18T01:49:04.218Z,12.98
2018-05-18T01:51:33.750Z,13.16
2018-05-18T01:54:03.288Z,13.06
2018-05-18T01:56:32.818Z,12.90
2018-05-18T01:59:02.358Z,12.88
2018-05-18T02:01:31.883Z,13.03
2018-05-18T02:04:01.422Z,13.07
2018-05-18T02:06:31.342Z,13.23
2018-05-18T02:09:01.338Z,13.22
2018-05-18T02:11:30.863Z,13.34
2018-05-18T02:14:00.801Z,13.36
2018-05-18T02:16:30.394Z,13.34
2018-05-18T02:19:00.326Z,13.24
2018-05-18T02:21:29.872Z,13.27
2018-05-18T02:23:59.388Z,13.31
2018-05-18T02:26:28.910Z,13.28
2018-05-18T02:28:58.436Z,13.25
2018-05-18T02:31:28.356Z,13.27
2018-05-18T02:33:57.876Z,13.38
2018-05-18T02:36:27.418Z,13.34
2018-05-18T02:38:56.949Z,13.30
2018-05-18T02:41:26.875Z,13.11
2018-05-18T02:43:56.817Z,12.83
2018-05-18T02:46:26.339Z,12.68
2018-05-18T02:48:55.870Z,12.57
2018-05-18T02:51:25.414Z,12.43
2018-05-18T02:53:55.112Z,12.33
2018-05-18T02:56:25.094Z,12.39
2018-05-18T02:58:54.622Z,12.31
2018-05-18T03:01:24.174Z,12.22
2018-05-18T03:03:53.700Z,12.15
2018-05-18T03:06:23.231Z,12.03
2018-05-18T03:08:52.773Z,12.08
2018-05-18T03:11:22.361Z,12.08
2018-05-18T03:13:51.898Z,12.00
2018-05-18T03:16:21.493Z,12.09
2018-05-18T03:18:51.424Z,12.10
2018-05-18T03:21:20.964Z,12.15
2018-05-18T03:23:50.498Z,12.18
2018-05-18T03:26:20.026Z,12.25
2018-05-18T03:28:49.946Z,12.22
2018-05-18T03:31:19.546Z,12.20
2018-05-18T03:33:49.470Z,12.18
2018-05-18T03:36:19.098Z,12.16
2018-05-18T03:38:48.672Z,12.13
2018-05-18T03:41:18.584Z,12.29
2018-05-18T03:43:48.518Z,12.33
2018-05-18T03:46:18.436Z,12.30
2018-05-18T03:48:47.978Z,12.40
2018-05-18T03:51:17.721Z,12.38
2018-05-18T03:53:47.284Z,12.16
2018-05-18T03:56:16.820Z,12.18
2018-05-18T03:58:46.378Z,12.24
2018-05-18T04:01:32.816Z,12.26
2018-05-18T04:04:19.199Z,12.18
2018-05-18T04:07:05.635Z,12.24
2018-05-18T04:09:35.162Z,12.30
2018-05-18T04:12:04.716Z,12.29
2018-05-18T04:14:34.738Z,12.24
2018-05-18T04:17:04.311Z,12.13
2018-05-18T04:19:34.346Z,12.12
2018-05-18T04:22:03.891Z,11.97
2018-05-18T04:24:33.410Z,11.80
2018-05-18T04:27:03.050Z,11.74
2018-05-18T04:29:33.015Z,11.70
2018-05-18T04:32:02.236Z,11.72
2018-05-18T04:34:31.752Z,11.72
2018-05-18T04:37:01.317Z,11.69
2018-05-18T04:39:31.059Z,11.67
2018-05-18T04:42:00.680Z,11.63
2018-05-18T04:44:30.225Z,11.64
2018-05-18T04:46:59.775Z,11.70
2018-05-18T04:49:29.290Z,11.88
2018-05-18T04:51:58.819Z,11.91
2018-05-18T04:54:28.781Z,12.12
2018-05-18T04:56:58.535Z,11.95
2018-05-18T04:59:28.485Z,12.08
2018-05-18T05:01:58.042Z,12.12
2018-05-18T05:04:27.579Z,12.19
2018-05-18T05:06:57.518Z,12.29
2018-05-18T05:09:27.047Z,12.44
2018-05-18T05:11:56.569Z,12.40
2018-05-18T05:14:26.103Z,12.28
2018-05-18T05:16:56.071Z,12.36
2018-05-18T05:19:25.615Z,12.44
2018-05-18T05:21:55.168Z,12.43
2018-05-18T05:24:24.711Z,12.55
2018-05-18T05:26:54.261Z,12.45
2018-05-18T05:29:23.787Z,12.50
2018-05-18T05:31:53.351Z,12.39
2018-05-18T05:34:22.890Z,12.48
2018-05-18T05:36:52.425Z,12.54
2018-05-18T05:39:21.947Z,12.52
2018-05-18T05:41:51.477Z,12.59
2018-05-18T05:44:21.443Z,12.56
2018-05-18T05:46:51.079Z,12.58
2018-05-18T05:49:20.696Z,12.57
2018-05-18T05:51:50.265Z,12.51
2018-05-18T05:54:19.816Z,12.43
2018-05-18T05:56:49.547Z,12.34
2018-05-18T05:59:19.464Z,12.45
2018-05-18T06:01:49.736Z,12.37
2018-05-18T06:04:19.306Z,12.28
2018-05-18T06:06:48.843Z,12.29
2018-05-18T06:09:18.381Z,12.26
2018-05-18T06:11:48.003Z,12.25
2018-05-18T06:14:17.702Z,12.18
2018-05-18T06:16:47.365Z,12.15
2018-05-18T06:19:16.902Z,12.09
2018-05-18T06:21:46.439Z,12.09
2018-05-18T06:24:16.175Z,12.08
2018-05-18T06:26:45.733Z,12.12
2018-05-18T06:29:15.278Z,12.16
2018-05-18T06:31:44.803Z,12.15
2018-05-18T06:34:14.329Z,12.29
2018-05-18T06:36:43.858Z,12.31
2018-05-18T06:39:13.382Z,12.32
2018-05-18T06:41:42.929Z,12.33
2018-05-18T06:44:12.481Z,12.40
2018-05-18T06:46:42.012Z,12.38
2018-05-18T06:49:11.730Z,12.42
2018-05-18T06:51:41.654Z,12.39
2018-05-18T06:54:10.934Z,12.43
2018-05-18T06:56:40.853Z,12.55
2018-05-18T06:59:10.882Z,12.70
2018-05-18T07:01:40.463Z,12.76
2018-05-18T07:04:10.042Z,13.06
2018-05-18T07:06:40.139Z,13.24
2018-05-18T07:09:09.723Z,13.19
2018-05-18T07:11:39.249Z,13.18
2018-05-18T07:14:09.378Z,13.27
2018-05-18T07:16:38.966Z,13.08
2018-05-18T07:19:09.085Z,13.21
2018-05-18T07:21:38.625Z,13.24
2018-05-18T07:24:08.223Z,13.20
2018-05-18T07:26:37.749Z,13.24
2018-05-18T07:29:07.265Z,13.33
2018-05-18T07:31:36.803Z,13.60
2018-05-18T07:34:06.803Z,13.74
2018-05-18T07:36:36.375Z,13.71
2018-05-18T07:39:04.999Z,13.88
2018-05-18T07:41:34.929Z,13.88
2018-05-18T07:44:04.670Z,13.86
2018-05-18T07:46:34.234Z,14.06
2018-05-18T07:49:04.158Z,13.98
2018-05-18T07:51:33.706Z,13.71
2018-05-18T07:54:03.230Z,13.71
2018-05-18T07:56:32.787Z,13.66
2018-05-18T07:59:02.338Z,13.67
2018-05-18T08:01:31.860Z,13.77
2018-05-18T08:04:01.429Z,13.86
2018-05-18T08:06:30.977Z,13.79
2018-05-18T08:09:00.507Z,13.67
2018-05-18T08:11:30.447Z,13.73
2018-05-18T08:13:59.995Z,13.82
2018-05-18T08:16:29.517Z,14.05
2018-05-18T08:18:59.073Z,14.10
2018-05-18T08:21:28.644Z,14.22
2018-05-18T08:23:58.618Z,14.17
2018-05-18T08:26:28.135Z,14.39
2018-05-18T08:29:14.546Z,14.46
2018-05-18T08:31:44.062Z,14.64
2018-05-18T08:34:13.586Z,14.90
2018-05-18T08:36:43.529Z,15.07
2018-05-18T08:39:13.116Z,15.07
2018-05-18T08:41:42.768Z,15.03
2018-05-18T08:44:12.514Z,14.93
2018-05-18T08:46:42.046Z,15.35
2018-05-18T08:49:11.961Z,15.12
2018-05-18T08:51:41.952Z,15.05
2018-05-18T08:54:11.524Z,15.29
2018-05-18T08:56:41.095Z,15.80
2018-05-18T08:59:10.635Z,15.79
2018-05-18T09:01:40.191Z,15.98
2018-05-18T09:04:10.142Z,16.27
2018-05-18T09:06:39.660Z,16.39
2018-05-18T09:09:09.182Z,16.00
2018-05-18T09:11:38.743Z,16.07
2018-05-18T09:14:08.668Z,16.64
2018-05-18T09:16:38.211Z,16.57
2018-05-18T09:19:08.225Z,16.40
2018-05-18T09:21:37.774Z,16.28
2018-05-18T09:24:07.724Z,16.66
2018-05-18T09:26:37.254Z,17.20
2018-05-18T09:29:06.774Z,17.62
2018-05-18T09:31:36.304Z,17.24
2018-05-18T09:34:05.953Z,17.43
2018-05-18T09:36:35.628Z,17.27
2018-05-18T09:39:04.400Z,16.97
2018-05-18T09:41:33.999Z,16.70
2018-05-18T09:44:03.712Z,17.23
2018-05-18T09:46:33.288Z,16.93
2018-05-18T09:49:02.836Z,17.75
2018-05-18T09:51:33.000Z,17.83
2018-05-18T09:54:02.551Z,17.45
2018-05-18T09:56:33.012Z,17.44
2018-05-18T09:59:02.974Z,17.50
2018-05-18T10:01:32.502Z,17.94
2018-05-18T10:04:02.040Z,18.22
2018-05-18T10:06:31.962Z,18.58
2018-05-18T10:09:01.888Z,17.93
2018-05-18T10:11:31.408Z,18.41
2018-05-18T10:14:01.045Z,18.30
2018-05-18T10:16:31.170Z,18.12
2018-05-18T10:19:00.687Z,18.58
2018-05-18T10:21:30.229Z,18.53
2018-05-18T10:23:59.735Z,18.08
2018-05-18T10:26:29.252Z,18.34
2018-05-18T10:28:58.773Z,17.92
2018-05-18T10:31:28.365Z,18.10
2018-05-18T10:33:58.441Z,18.83
2018-05-18T10:36:27.961Z,19.26
2018-05-18T10:38:57.679Z,19.33
2018-05-18T10:41:27.597Z,19.73
2018-05-18T10:43:57.519Z,19.44
2018-05-18T10:46:27.076Z,19.82
2018-05-18T10:48:56.608Z,19.44
2018-05-18T10:51:26.132Z,19.23
2018-05-18T10:53:56.059Z,19.48
2018-05-18T10:56:25.584Z,18.46
2018-05-18T10:58:55.124Z,18.29
2018-05-18T11:01:24.639Z,19.03
2018-05-18T11:03:54.146Z,19.72
2018-05-18T11:06:23.677Z,19.54
2018-05-18T11:08:53.608Z,18.79
2018-05-18T11:11:23.138Z,18.99
2018-05-18T11:13:52.704Z,19.05
2018-05-18T11:16:22.439Z,18.67
2018-05-18T11:18:51.714Z,19.15
2018-05-18T11:21:21.638Z,19.28
2018-05-18T11:23:51.544Z,18.78
2018-05-18T11:26:21.523Z,18.63
2018-05-18T11:28:51.221Z,18.64
2018-05-18T11:31:20.741Z,19.19
2018-05-18T11:33:50.267Z,18.96
2018-05-18T11:36:19.805Z,18.88
2018-05-18T11:38:49.359Z,19.28
2018-05-18T11:41:18.910Z,19.43
2018-05-18T11:43:48.435Z,19.78
2018-05-18T11:46:18.324Z,20.38
2018-05-18T11:48:48.446Z,20.49
2018-05-18T11:51:18.552Z,20.50
2018-05-18T11:53:48.659Z,20.64
2018-05-18T11:56:18.813Z,20.53
2018-05-18T11:58:48.936Z,19.43
2018-05-18T12:01:18.503Z,19.74
2018-05-18T12:03:48.074Z,19.57
2018-05-18T12:06:17.632Z,20.14
2018-05-18T12:08:47.575Z,20.27
2018-05-18T12:11:17.688Z,20.45
2018-05-18T12:13:47.876Z,20.45
2018-05-18T12:16:17.974Z,20.47
2018-05-18T12:18:47.520Z,20.20
2018-05-18T12:21:17.818Z,20.22
2018-05-18T12:23:47.924Z,20.20
2018-05-18T12:26:18.041Z,19.84
2018-05-18T12:28:48.535Z,19.88
2018-05-18T12:31:18.049Z,20.11
2018-05-18T12:33:48.145Z,20.46
2018-05-18T12:36:18.237Z,20.21
2018-05-18T12:38:48.575Z,20.28
2018-05-18T12:41:18.113Z,20.20
2018-05-18T12:43:48.343Z,19.95
2018-05-18T12:46:20.127Z,20.15
2018-05-18T12:48:50.622Z,20.16
2018-05-18T12:51:20.175Z,20.42
2018-05-18T12:53:49.707Z,20.26
2018-05-18T12:56:19.285Z,20.79
2018-05-18T12:58:49.765Z,21.20
2018-05-18T13:01:19.907Z,21.38
2018-05-18T13:03:49.987Z,21.60
2018-05-18T13:06:20.073Z,21.60
2018-05-18T13:08:50.259Z,21.99
2018-05-18T13:11:20.372Z,21.63
2018-05-18T13:13:50.158Z,21.32
2018-05-18T13:16:20.275Z,21.49
2018-05-18T13:18:50.422Z,21.84
2018-05-18T13:21:20.515Z,21.16
2018-05-18T13:23:50.605Z,20.66
2018-05-18T13:26:21.071Z,20.61
2018-05-18T13:28:51.943Z,20.61
2018-05-18T13:31:22.039Z,21.08
2018-05-18T13:33:52.177Z,20.85
2018-05-18T13:36:22.259Z,21.32
2018-05-18T13:38:52.589Z,21.40
2018-05-18T13:41:22.659Z,21.71
2018-05-18T13:43:53.158Z,21.94
2018-05-18T13:46:23.807Z,21.57
2018-05-18T13:48:53.907Z,21.69
2018-05-18T13:51:24.011Z,21.47
2018-05-18T13:53:54.129Z,21.57
2018-05-18T13:56:24.219Z,21.91
2018-05-18T13:58:54.303Z,21.67
2018-05-18T14:01:24.387Z,21.60
2018-05-18T14:03:54.557Z,21.90
2018-05-18T14:06:24.763Z,21.52
2018-05-18T14:08:55.289Z,21.97
2018-05-18T14:11:25.383Z,21.67
2018-05-18T14:13:55.467Z,21.58
2018-05-18T14:16:25.593Z,22.21
2018-05-18T14:18:55.687Z,22.43
2018-05-18T14:21:26.175Z,21.96
2018-05-18T14:23:56.307Z,21.86
2018-05-18T14:26:26.434Z,21.99
2018-05-18T14:28:56.715Z,22.10
2018-05-18T14:31:26.791Z,22.42
2018-05-18T14:33:56.934Z,22.54
2018-05-18T14:36:27.031Z,22.58
2018-05-18T14:38:57.123Z,22.36
2018-05-18T14:41:27.229Z,22.52
2018-05-18T14:43:57.401Z,22.27
2018-05-18T14:46:28.062Z,22.16
2018-05-18T14:48:58.181Z,21.84
2018-05-18T14:51:28.339Z,21.74
2018-05-18T14:53:58.477Z,21.59
2018-05-18T14:56:29.043Z,21.64
2018-05-18T14:58:59.987Z,21.85
2018-05-18T15:01:30.103Z,22.30
2018-05-18T15:04:00.205Z,22.38
2018-05-18T15:06:31.213Z,22.03
2018-05-18T15:09:02.172Z,21.72
2018-05-18T15:11:32.445Z,21.70
2018-05-18T15:14:02.511Z,21.60
2018-05-18T15:16:32.599Z,21.78
2018-05-18T15:19:02.689Z,22.25
2018-05-18T15:21:32.769Z,22.29
2018-05-18T15:24:02.885Z,22.51
2018-05-18T15:26:33.013Z,22.58
2018-05-18T15:29:03.089Z,22.29
2018-05-18T15:31:33.179Z,21.91
2018-05-18T15:34:03.267Z,21.88
2018-05-18T15:36:33.355Z,21.76
2018-05-18T15:39:03.211Z,21.41
2018-05-18T15:41:33.711Z,21.22
2018-05-18T15:44:03.151Z,21.01
2018-05-18T15:46:33.356Z,20.71
2018-05-18T15:49:03.489Z,20.42
2018-05-18T15:51:33.993Z,20.25
2018-05-18T15:54:03.558Z,20.03
2018-05-18T15:56:33.105Z,19.91
2018-05-18T15:59:02.640Z,19.77
2018-05-18T16:01:32.212Z,19.96
2018-05-18T16:04:01.761Z,20.14
2018-05-18T16:06:31.296Z,20.15
2018-05-18T16:09:00.836Z,20.03
2018-05-18T16:11:30.371Z,20.04
2018-05-18T16:13:59.941Z,20.04
2018-05-18T16:16:29.899Z,20.04
2018-05-18T16:19:00.389Z,20.14
2018-05-18T16:21:29.921Z,20.12
2018-05-18T16:24:00.414Z,20.27
2018-05-18T16:26:30.488Z,20.29
2018-05-18T16:29:00.997Z,20.14
2018-05-18T16:31:30.526Z,20.20
2018-05-18T16:34:00.055Z,20.04
2018-05-18T16:36:30.165Z,20.15
2018-05-18T16:39:00.249Z,19.91
2018-05-18T16:41:29.781Z,19.75
2018-05-18T16:43:59.304Z,19.72
2018-05-18T16:46:28.867Z,19.78
2018-05-18T16:48:58.384Z,19.68
2018-05-18T16:51:27.919Z,19.62
2018-05-18T16:53:57.559Z,19.51
2018-05-18T16:56:27.513Z,19.58
2018-05-18T16:58:57.045Z,19.76
2018-05-18T17:01:26.599Z,19.74
2018-05-18T17:03:56.158Z,19.70
2018-05-18T17:06:25.678Z,19.67
2018-05-18T17:08:55.418Z,19.61
2018-05-18T17:11:24.961Z,19.61
2018-05-18T17:13:54.496Z,19.52
2018-05-18T17:16:24.123Z,19.62
2018-05-18T17:18:54.042Z,19.56
2018-05-18T17:21:23.954Z,19.69
2018-05-18T17:23:53.881Z,19.67
2018-05-18T17:26:23.422Z,19.66
2018-05-18T17:28:52.958Z,19.54
2018-05-18T17:31:22.482Z,19.44
2018-05-18T17:33:52.415Z,19.42
2018-05-18T17:36:22.341Z,19.31
2018-05-18T17:38:51.913Z,19.15
2018-05-18T17:41:21.541Z,19.19
2018-05-18T17:43:51.455Z,19.19
2018-05-18T17:46:21.395Z,19.18
2018-05-18T17:48:50.591Z,19.16
2018-05-18T17:51:20.695Z,19.13
2018-05-18T17:53:50.617Z,19.10
2018-05-18T17:56:20.133Z,19.06
2018-05-18T17:58:49.845Z,18.98
2018-05-18T18:01:19.364Z,18.86
2018-05-18T18:03:48.921Z,18.73
2018-05-18T18:06:18.613Z,18.57
2018-05-18T18:08:48.161Z,18.49
2018-05-18T18:11:17.704Z,18.37
2018-05-18T18:13:47.228Z,18.13
2018-05-18T18:16:16.781Z,18.00
2018-05-18T18:18:46.306Z,17.92
2018-05-18T18:21:16.040Z,17.91
2018-05-18T18:23:45.551Z,17.86
2018-05-18T18:26:15.081Z,17.85
2018-05-18T18:28:44.606Z,17.85
2018-05-18T18:31:14.519Z,17.86
2018-05-18T18:33:44.440Z,17.92
2018-05-18T18:36:14.371Z,17.95
2018-05-18T18:38:44.487Z,17.88
2018-05-18T18:41:14.007Z,17.81
2018-05-18T18:43:43.527Z,17.68
2018-05-18T18:46:13.065Z,17.63
2018-05-18T18:48:42.631Z,17.56
2018-05-18T18:51:12.163Z,17.48
2018-05-18T18:53:41.812Z,17.34
2018-05-18T18:56:11.727Z,17.28
2018-05-18T18:58:41.676Z,17.22
2018-05-18T19:01:11.781Z,17.16
2018-05-18T19:03:41.306Z,17.10
2018-05-18T19:06:10.830Z,17.05
2018-05-18T19:08:40.371Z,16.96
2018-05-18T19:11:10.302Z,16.96
2018-05-18T19:13:39.892Z,16.92
2018-05-18T19:16:09.813Z,16.80
2018-05-18T19:18:39.721Z,16.74
2018-05-18T19:21:09.646Z,16.57
2018-05-18T19:23:40.177Z,16.42
2018-05-18T19:26:10.088Z,16.31
2018-05-18T19:28:39.995Z,16.23
2018-05-18T19:31:09.586Z,16.19
2018-05-18T19:33:39.126Z,16.15
2018-05-18T19:36:09.034Z,16.12
2018-05-18T19:38:38.991Z,16.12
2018-05-18T19:41:09.170Z,16.15
2018-05-18T19:43:39.114Z,16.12
2018-05-18T19:46:09.258Z,16.07
2018-05-18T19:48:38.825Z,16.07
2018-05-18T19:51:08.757Z,16.01
2018-05-18T19:53:38.306Z,15.95
2018-05-18T19:56:07.826Z,15.91
2018-05-18T19:58:37.365Z,15.93
2018-05-18T20:01:07.194Z,15.89
2018-05-18T20:03:36.774Z,15.81
2018-05-18T20:06:06.458Z,15.77
2018-05-18T20:08:35.988Z,15.74
2018-05-18T20:11:05.912Z,15.77
2018-05-18T20:13:35.882Z,15.85
2018-05-18T20:16:05.446Z,15.95
2018-05-18T20:18:34.964Z,15.99
2018-05-18T20:21:04.538Z,15.99
2018-05-18T20:23:34.438Z,16.09
2018-05-18T20:26:03.952Z,15.95
2018-05-18T20:28:33.913Z,15.90
2018-05-18T20:31:03.449Z,15.88
2018-05-18T20:33:33.161Z,15.86
2018-05-18T20:36:02.760Z,15.77
2018-05-18T20:38:32.451Z,15.74
2018-05-18T20:41:02.046Z,15.71
2018-05-18T20:43:31.561Z,15.67
2018-05-18T20:46:01.085Z,15.60
2018-05-18T20:48:30.670Z,15.69
2018-05-18T20:51:00.198Z,15.59
2018-05-18T20:53:29.751Z,15.53
2018-05-18T20:55:59.672Z,15.44
2018-05-18T20:58:29.606Z,15.46
2018-05-18T21:00:59.329Z,15.50
2018-05-18T21:03:28.837Z,15.33
2018-05-18T21:05:58.592Z,15.42
2018-05-18T21:08:28.150Z,15.29
2018-05-18T21:10:57.730Z,15.09
2018-05-18T21:13:27.286Z,14.98
2018-05-18T21:15:56.841Z,14.84
2018-05-18T21:18:26.789Z,14.91
2018-05-18T21:20:56.556Z,14.92
2018-05-18T21:23:26.108Z,14.96
2018-05-18T21:25:55.642Z,14.98
2018-05-18T21:28:25.170Z,14.94
2018-05-18T21:30:54.740Z,14.92
2018-05-18T21:33:24.286Z,14.84
2018-05-18T21:35:53.486Z,14.68
2018-05-18T21:38:23.422Z,14.62
2018-05-18T21:40:53.392Z,14.44
2018-05-18T21:43:22.909Z,14.31
2018-05-18T21:45:52.456Z,14.30
2018-05-18T21:48:23.653Z,14.20
2018-05-18T21:50:53.225Z,14.24
2018-05-18T21:53:22.739Z,14.34
2018-05-18T21:55:52.313Z,14.40
2018-05-18T21:58:22.231Z,14.25
2018-05-18T22:00:51.804Z,14.17
2018-05-18T22:03:21.482Z,14.22
2018-05-18T22:05:51.021Z,14.27
2018-05-18T22:08:20.546Z,14.26
2018-05-18T22:10:50.499Z,14.25
2018-05-18T22:13:20.042Z,14.26
2018-05-18T22:15:49.576Z,14.18
2018-05-18T22:18:19.496Z,14.16
2018-05-18T22:20:49.434Z,14.03
2018-05-18T22:23:18.978Z,13.84
2018-05-18T22:25:48.510Z,13.60
2018-05-18T22:28:18.028Z,13.51
2018-05-18T22:30:47.953Z,13.52
2018-05-18T22:33:18.126Z,13.64
2018-05-18T22:35:47.652Z,13.61
2018-05-18T22:38:17.166Z,13.71
2018-05-18T22:40:47.120Z,13.72
2018-05-18T22:43:16.649Z,13.75
2018-05-18T22:45:46.174Z,13.74
2018-05-18T22:48:15.800Z,13.78
2018-05-18T22:50:45.362Z,13.88
2018-05-18T22:53:14.894Z,13.83
2018-05-18T22:55:44.479Z,13.74
2018-05-18T22:58:14.046Z,13.71
2018-05-18T23:00:43.960Z,13.74
2018-05-18T23:03:13.884Z,13.74
2018-05-18T23:05:43.811Z,13.62
2018-05-18T23:08:13.342Z,13.58
2018-05-18T23:10:42.900Z,13.42
2018-05-18T23:13:12.826Z,13.41
2018-05-18T23:15:42.786Z,13.44
2018-05-18T23:18:12.876Z,13.49
2018-05-18T23:20:42.407Z,13.50
2018-05-18T23:23:11.922Z,13.46
2018-05-18T23:25:41.488Z,13.49
2018-05-18T23:28:11.252Z,13.38
2018-05-18T23:30:40.790Z,13.41
2018-05-18T23:33:10.731Z,13.33
2018-05-18T23:35:40.250Z,13.31
2018-05-18T23:38:09.791Z,13.33
2018-05-18T23:40:39.324Z,13.29
2018-05-18T23:43:09.248Z,13.33
2018-05-18T23:45:39.194Z,13.26
2018-05-18T23:48:08.726Z,12.97
2018-05-18T23:50:38.252Z,12.79
2018-05-18T23:53:07.764Z,12.75
2018-05-18T23:55:37.684Z,12.86
2018-05-18T23:58:07.618Z,12.80
